createdAt,value
2023-03-15T00:01:38.747Z,103.23
2023-03-15T00:04:06.796Z,103.17
2023-03-15T00:06:35.554Z,105.07
2023-03-15T00:09:03.980Z,96.77
2023-03-15T00:11:31.944Z,91.53
2023-03-15T00:14:01.845Z,98.80
2023-03-15T00:16:32.792Z,97.07
2023-03-15T00:19:00.616Z,97.43
2023-03-15T00:21:29.764Z,103.13
2023-03-15T00:23:57.707Z,97.30
2023-03-15T00:26:25.494Z,89.87
2023-03-15T00:28:53.128Z,93.53
2023-03-15T00:31:23.314Z,101.53
2023-03-15T00:33:54.692Z,86.97
2023-03-15T00:36:25.128Z,89.50
2023-03-15T00:38:54.667Z,82.40
2023-03-15T00:41:23.337Z,85.60
2023-03-15T00:43:52.008Z,90.13
2023-03-15T00:46:20.739Z,89.60
2023-03-15T00:48:50.029Z,79.57
2023-03-15T00:51:21.275Z,81.20
2023-03-15T00:53:50.566Z,77.90
2023-03-15T00:56:20.541Z,81.27
2023-03-15T00:58:48.355Z,77.87
2023-03-15T01:01:19.219Z,80.27
2023-03-15T01:03:46.952Z,80.50
2023-03-15T01:06:16.665Z,79.67
2023-03-15T01:08:46.659Z,83.90
2023-03-15T01:11:16.586Z,81.10
2023-03-15T01:13:45.333Z,77.83
2023-03-15T01:16:14.752Z,81.00
2023-03-15T01:18:45.152Z,79.17
2023-03-15T01:21:14.876Z,81.83
2023-03-15T01:23:43.063Z,78.53
2023-03-15T01:26:14.191Z,73.47
2023-03-15T01:28:42.133Z,79.83
2023-03-15T01:31:18.060Z,71.83
2023-03-15T01:33:45.806Z,74.33
2023-03-15T01:36:14.221Z,74.27
2023-03-15T01:38:42.988Z,70.83
2023-03-15T01:41:13.833Z,78.13
2023-03-15T01:43:47.024Z,76.40
2023-03-15T01:46:24.736Z,77.60
2023-03-15T01:49:00.687Z,67.37
2023-03-15T01:51:38.469Z,71.17
2023-03-15T01:54:10.185Z,72.03
2023-03-15T01:56:42.869Z,72.70
2023-03-15T01:59:14.084Z,77.33
2023-03-15T02:01:45.538Z,69.17
2023-03-15T02:04:17.657Z,69.77
2023-03-15T02:06:48.908Z,72.90
2023-03-15T02:09:19.234Z,67.17
2023-03-15T02:11:49.698Z,66.57
2023-03-15T02:14:19.388Z,71.00
2023-03-15T02:16:47.066Z,74.30
2023-03-15T02:19:28.914Z,71.53
2023-03-15T02:22:03.718Z,67.67
2023-03-15T02:24:38.712Z,70.53
2023-03-15T02:27:08.994Z,70.43
2023-03-15T02:29:38.116Z,71.33
2023-03-15T02:32:06.141Z,68.17
2023-03-15T02:34:33.896Z,67.83
2023-03-15T02:37:02.240Z,69.20
2023-03-15T02:39:29.896Z,65.50
2023-03-15T02:41:59.683Z,71.00
2023-03-15T02:44:32.809Z,63.43
2023-03-15T02:47:05.335Z,72.40
2023-03-15T02:49:38.709Z,62.67
2023-03-15T02:52:08.455Z,65.97
2023-03-15T02:54:36.591Z,60.73
2023-03-15T02:57:04.697Z,72.67
2023-03-15T02:59:33.051Z,64.17
2023-03-15T03:02:02.886Z,64.73
2023-03-15T03:04:30.629Z,64.43
2023-03-15T03:06:58.510Z,68.17
2023-03-15T03:09:33.704Z,63.90
2023-03-15T03:12:01.531Z,59.80
2023-03-15T03:14:31.201Z,56.40
2023-03-15T03:16:59.371Z,59.77
2023-03-15T03:19:28.477Z,62.27
2023-03-15T03:21:57.417Z,58.43
2023-03-15T03:24:25.778Z,51.13
2023-03-15T03:26:57.765Z,60.90
2023-03-15T03:29:30.028Z,61.53
2023-03-15T03:32:01.402Z,66.47
2023-03-15T03:34:31.348Z,62.30
2023-03-15T03:36:59.928Z,69.00
2023-03-15T03:39:44.645Z,63.37
2023-03-15T03:42:12.709Z,62.43
2023-03-15T03:44:40.366Z,67.70
2023-03-15T03:47:08.842Z,71.03
2023-03-15T03:49:37.951Z,68.50
2023-03-15T03:52:06.150Z,73.57
2023-03-15T03:54:34.164Z,76.87
2023-03-15T03:57:01.803Z,68.70
2023-03-15T03:59:33.642Z,75.37
2023-03-15T04:05:02.348Z,68.47
2023-03-15T04:07:30.089Z,70.80
2023-03-15T04:09:57.829Z,67.87
2023-03-15T04:12:25.543Z,76.47
2023-03-15T04:14:55.712Z,74.83
2023-03-15T04:17:25.893Z,63.07
2023-03-15T04:19:53.653Z,65.97
2023-03-15T04:22:28.253Z,66.83
2023-03-15T04:25:04.756Z,64.90
2023-03-15T04:28:02.681Z,65.33
2023-03-15T04:30:58.603Z,62.37
2023-03-15T04:33:49.319Z,58.60
2023-03-15T04:36:35.800Z,59.83
2023-03-15T04:39:07.170Z,65.20
2023-03-15T04:41:47.775Z,64.03
2023-03-15T04:44:44.923Z,57.00
2023-03-15T04:47:45.030Z,62.30
2023-03-15T04:50:40.721Z,57.87
2023-03-15T04:53:16.690Z,63.10
2023-03-15T04:56:08.906Z,58.27
2023-03-15T04:58:55.444Z,61.80
2023-03-15T05:01:46.064Z,63.40
2023-03-15T05:04:38.465Z,61.23
2023-03-15T05:07:25.376Z,58.40
2023-03-15T05:10:23.826Z,60.10
2023-03-15T05:13:13.050Z,59.20
2023-03-15T05:16:01.422Z,57.80
2023-03-15T05:18:47.709Z,61.30
2023-03-15T05:21:32.634Z,60.33
2023-03-15T05:24:14.383Z,57.63
2023-03-15T05:27:11.968Z,55.90
2023-03-15T05:29:53.500Z,62.63
2023-03-15T05:32:39.497Z,65.37
2023-03-15T05:35:22.175Z,65.50
2023-03-15T05:38:28.085Z,62.30
2023-03-15T05:41:18.118Z,61.70
2023-03-15T05:43:54.588Z,63.07
2023-03-15T05:46:35.524Z,65.63
2023-03-15T05:49:25.675Z,62.17
2023-03-15T05:52:12.040Z,55.47
2023-03-15T05:54:50.730Z,61.27
2023-03-15T05:57:53.802Z,63.30
2023-03-15T06:00:40.463Z,61.53
2023-03-15T06:03:20.216Z,64.10
2023-03-15T06:06:05.031Z,68.67
2023-03-15T06:08:37.977Z,61.77
2023-03-15T06:11:06.665Z,66.03
2023-03-15T06:13:34.787Z,66.67
2023-03-15T06:16:08.065Z,67.23
2023-03-15T06:18:40.345Z,63.77
2023-03-15T06:21:08.145Z,73.77
2023-03-15T06:23:36.870Z,65.07
2023-03-15T06:26:05.440Z,68.73
2023-03-15T06:28:33.375Z,71.60
2023-03-15T06:31:07.765Z,67.17
2023-03-15T06:33:41.599Z,62.13
2023-03-15T06:36:12.592Z,63.77
2023-03-15T06:38:41.725Z,71.57
2023-03-15T06:41:09.418Z,65.83
2023-03-15T06:43:38.163Z,69.70
2023-03-15T06:46:06.917Z,70.10
2023-03-15T06:48:34.670Z,68.87
2023-03-15T06:51:05.801Z,64.77
2023-03-15T06:53:33.655Z,64.47
2023-03-15T06:56:01.404Z,70.17
2023-03-15T06:58:28.996Z,69.47
2023-03-15T07:00:56.796Z,67.03
2023-03-15T07:03:24.490Z,72.00
2023-03-15T07:05:53.926Z,60.90
2023-03-15T07:08:24.629Z,65.00
2023-03-15T07:10:53.050Z,63.63
2023-03-15T07:13:20.994Z,60.57
2023-03-15T07:15:53.028Z,62.03
2023-03-15T07:18:20.780Z,67.07
2023-03-15T07:20:48.409Z,59.17
2023-03-15T07:23:16.074Z,63.27
2023-03-15T07:25:54.848Z,60.83
2023-03-15T07:28:24.921Z,64.90
2023-03-15T07:30:57.262Z,65.30
2023-03-15T07:33:26.538Z,70.00
2023-03-15T07:35:54.898Z,65.33
2023-03-15T07:38:23.201Z,63.07
2023-03-15T07:40:52.289Z,65.30
2023-03-15T07:43:20.537Z,66.07
2023-03-15T07:45:51.842Z,64.10
2023-03-15T07:48:19.492Z,61.07
2023-03-15T07:50:47.993Z,73.53
2023-03-15T07:53:15.820Z,64.03
2023-03-15T07:55:43.570Z,68.03
2023-03-15T07:58:13.385Z,66.20
2023-03-15T08:00:41.067Z,71.13
2023-03-15T08:03:09.214Z,70.20
2023-03-15T08:05:37.365Z,69.97
2023-03-15T08:08:05.541Z,69.80
2023-03-15T08:10:33.292Z,73.17
2023-03-15T08:13:00.929Z,60.33
2023-03-15T08:15:29.908Z,73.63
2023-03-15T08:17:59.615Z,72.73
2023-03-15T08:20:29.685Z,78.07
2023-03-15T08:22:57.735Z,82.30
2023-03-15T08:25:26.938Z,82.33
2023-03-15T08:27:54.569Z,75.03
2023-03-15T08:30:22.620Z,82.73
2023-03-15T08:32:52.567Z,79.43
2023-03-15T08:35:22.434Z,81.53
2023-03-15T08:37:52.463Z,84.37
2023-03-15T08:40:24.738Z,80.30
2023-03-15T08:42:53.032Z,76.13
2023-03-15T08:45:21.637Z,79.03
2023-03-15T08:47:50.614Z,81.33
2023-03-15T08:50:19.111Z,79.93
2023-03-15T08:52:46.782Z,78.57
2023-03-15T08:55:14.674Z,87.43
2023-03-15T08:57:42.945Z,85.93
2023-03-15T09:00:16.143Z,76.93
2023-03-15T09:02:43.960Z,80.77
2023-03-15T09:05:12.929Z,82.10
2023-03-15T09:07:42.697Z,81.27
2023-03-15T09:10:13.187Z,76.97
2023-03-15T09:12:40.893Z,78.33
2023-03-15T09:15:09.800Z,83.53
2023-03-15T09:17:37.465Z,81.67
2023-03-15T09:20:11.270Z,87.67
2023-03-15T09:22:40.534Z,78.07
2023-03-15T09:25:09.698Z,76.50
2023-03-15T09:27:37.907Z,78.77
2023-03-15T09:30:06.458Z,77.00
2023-03-15T09:32:36.294Z,81.20
2023-03-15T09:35:05.308Z,85.17
2023-03-15T09:37:33.431Z,80.20
2023-03-15T09:40:04.489Z,74.70
2023-03-15T09:42:42.814Z,80.87
2023-03-15T09:45:19.398Z,74.23
2023-03-15T09:47:56.817Z,76.60
2023-03-15T09:50:30.592Z,72.73
2023-03-15T09:53:03.459Z,75.17
2023-03-15T09:55:32.482Z,77.80
2023-03-15T09:58:01.986Z,78.90
2023-03-15T10:00:38.628Z,77.87
2023-03-15T10:03:09.826Z,80.80
2023-03-15T10:05:42.264Z,76.57
2023-03-15T10:08:12.482Z,75.00
2023-03-15T10:10:50.411Z,79.70
2023-03-15T10:13:29.493Z,79.33
2023-03-15T10:16:03.636Z,71.43
2023-03-15T10:18:49.802Z,73.80
2023-03-15T10:21:30.590Z,70.97
2023-03-15T10:23:59.474Z,72.53
2023-03-15T10:26:34.053Z,76.87
2023-03-15T10:29:04.972Z,74.87
2023-03-15T10:31:44.427Z,77.67
2023-03-15T10:34:14.060Z,78.67
2023-03-15T10:36:46.432Z,73.93
2023-03-15T10:39:14.238Z,85.60
2023-03-15T10:41:44.941Z,85.63
2023-03-15T10:44:15.187Z,87.47
2023-03-15T10:46:43.018Z,83.47
2023-03-15T10:49:13.250Z,86.90
2023-03-15T10:51:43.572Z,90.43
2023-03-15T10:54:17.587Z,90.93
2023-03-15T10:56:48.728Z,89.03
2023-03-15T10:59:18.447Z,86.27
2023-03-15T11:01:49.415Z,93.67
2023-03-15T11:04:21.333Z,86.23
2023-03-15T11:06:51.393Z,90.90
2023-03-15T11:09:22.190Z,96.37
2023-03-15T11:11:54.161Z,97.77
2023-03-15T11:14:21.799Z,89.97
2023-03-15T11:16:51.982Z,99.50
2023-03-15T11:19:22.973Z,102.57
2023-03-15T11:21:52.447Z,92.67
2023-03-15T11:24:26.667Z,103.23
2023-03-15T11:27:01.918Z,101.70
2023-03-15T11:29:32.592Z,106.70
2023-03-15T11:32:02.345Z,105.63
2023-03-15T11:34:41.313Z,112.07
2023-03-15T11:37:16.808Z,112.57
2023-03-15T11:39:53.734Z,106.80
2023-03-15T11:42:31.405Z,108.10
2023-03-15T11:45:02.828Z,119.10
2023-03-15T11:47:40.551Z,117.93
2023-03-15T11:50:12.710Z,129.27
2023-03-15T11:52:41.233Z,126.13
2023-03-15T11:55:18.780Z,140.13
2023-03-15T11:57:49.307Z,130.93
2023-03-15T12:00:50.719Z,134.03
2023-03-15T12:03:34.256Z,127.17
2023-03-15T12:06:11.599Z,130.10
2023-03-15T12:08:45.508Z,133.80
2023-03-15T12:11:13.943Z,139.77
2023-03-15T12:14:04.104Z,145.40
2023-03-15T12:16:34.695Z,132.30
2023-03-15T12:19:10.100Z,136.83
2023-03-15T12:21:42.454Z,132.83
2023-03-15T12:24:18.328Z,150.23
2023-03-15T12:26:47.629Z,153.73
2023-03-15T12:29:21.596Z,145.43
2023-03-15T12:31:55.688Z,144.60
2023-03-15T12:34:27.379Z,151.80
2023-03-15T12:36:59.258Z,145.23
2023-03-15T12:39:39.883Z,132.80
2023-03-15T12:42:13.818Z,136.37
2023-03-15T12:44:44.284Z,136.93
2023-03-15T12:47:12.786Z,143.53
2023-03-15T12:49:43.611Z,143.20
2023-03-15T12:52:35.753Z,147.90
2023-03-15T12:55:12.845Z,150.63
2023-03-15T12:57:48.520Z,151.43
2023-03-15T13:00:21.795Z,143.20
2023-03-15T13:02:51.677Z,143.50
2023-03-15T13:05:24.442Z,150.90
2023-03-15T13:07:58.393Z,150.20
2023-03-15T13:10:39.436Z,153.37
2023-03-15T13:13:44.968Z,148.83
2023-03-15T13:16:26.661Z,151.40
2023-03-15T13:19:05.246Z,140.00
2023-03-15T13:21:35.441Z,146.07
2023-03-15T13:24:04.528Z,156.73
2023-03-15T13:26:46.116Z,151.83
2023-03-15T13:29:17.535Z,148.03
2023-03-15T13:31:47.655Z,156.87
2023-03-15T13:34:19.562Z,155.43
2023-03-15T13:36:49.195Z,142.13
2023-03-15T13:39:20.561Z,157.00
2023-03-15T13:41:48.315Z,153.00
2023-03-15T13:44:20.696Z,164.97
2023-03-15T13:46:52.878Z,149.47
2023-03-15T13:49:21.649Z,140.00
2023-03-15T13:51:50.680Z,152.73
2023-03-15T13:54:21.998Z,149.83
2023-03-15T13:57:03.521Z,154.57
2023-03-15T13:59:35.778Z,158.83
2023-03-15T14:02:06.940Z,178.97
2023-03-15T14:04:38.475Z,200.33
2023-03-15T14:07:27.297Z,204.50
2023-03-15T14:10:24.830Z,184.27
2023-03-15T14:12:53.646Z,174.00
2023-03-15T14:15:24.822Z,182.70
2023-03-15T14:18:00.781Z,177.20
2023-03-15T14:20:33.497Z,174.07
2023-03-15T14:23:02.916Z,166.57
2023-03-15T14:25:34.803Z,160.43
2023-03-15T14:28:03.377Z,162.57
2023-03-15T14:30:34.088Z,164.57
2023-03-15T14:33:07.433Z,153.87
2023-03-15T14:35:44.094Z,154.87
2023-03-15T14:38:18.957Z,144.80
2023-03-15T14:40:46.825Z,155.40
2023-03-15T14:43:14.945Z,148.33
2023-03-15T14:45:44.717Z,156.93
2023-03-15T14:48:16.365Z,149.27
2023-03-15T14:50:46.658Z,152.40
2023-03-15T14:53:18.581Z,144.10
2023-03-15T14:55:46.341Z,140.90
2023-03-15T14:58:17.202Z,163.97
2023-03-15T15:00:46.987Z,157.90
2023-03-15T15:03:19.778Z,160.87
2023-03-15T15:05:47.701Z,155.57
2023-03-15T15:08:19.177Z,155.77
2023-03-15T15:10:48.712Z,152.77
2023-03-15T15:13:20.389Z,158.00
2023-03-15T15:15:55.761Z,153.07
2023-03-15T15:18:27.789Z,149.80
2023-03-15T15:20:57.375Z,158.83
2023-03-15T15:23:28.219Z,154.27
2023-03-15T15:25:58.837Z,155.70
2023-03-15T15:28:35.210Z,158.73
2023-03-15T15:31:05.894Z,175.30
2023-03-15T15:33:35.159Z,162.10
2023-03-15T15:36:04.353Z,179.57
2023-03-15T15:38:38.538Z,172.93
2023-03-15T15:41:07.636Z,196.23
2023-03-15T15:43:35.220Z,199.83
2023-03-15T15:46:03.370Z,198.10
2023-03-15T15:48:31.133Z,183.17
2023-03-15T15:51:00.084Z,191.20
2023-03-15T15:53:32.659Z,200.00
2023-03-15T15:56:00.808Z,203.83
2023-03-15T15:58:28.468Z,184.10
2023-03-15T16:00:56.073Z,202.43
2023-03-15T16:03:23.963Z,180.90
2023-03-15T16:05:52.851Z,174.03
2023-03-15T16:08:23.952Z,172.53
2023-03-15T16:10:52.000Z,167.93
2023-03-15T16:13:19.624Z,174.87
2023-03-15T16:15:47.263Z,177.80
2023-03-15T16:18:15.433Z,173.43
2023-03-15T16:20:43.802Z,162.73
2023-03-15T16:23:18.937Z,167.53
2023-03-15T16:25:50.760Z,180.83
2023-03-15T16:28:18.523Z,166.60
2023-03-15T16:30:47.110Z,172.00
2023-03-15T16:33:17.011Z,156.07
2023-03-15T16:35:45.520Z,150.33
2023-03-15T16:38:16.828Z,150.77
2023-03-15T16:40:46.664Z,153.07
2023-03-15T16:43:15.723Z,137.97
2023-03-15T16:45:43.625Z,149.30
2023-03-15T16:48:11.946Z,144.37
2023-03-15T16:50:40.826Z,177.60
2023-03-15T16:53:11.067Z,157.90
2023-03-15T16:55:39.544Z,164.77
2023-03-15T16:58:17.368Z,177.10
2023-03-15T17:00:47.018Z,163.63
2023-03-15T17:03:16.434Z,164.40
2023-03-15T17:05:46.653Z,168.23
2023-03-15T17:08:18.338Z,158.47
2023-03-15T17:10:46.385Z,166.17
2023-03-15T17:13:18.065Z,155.73
2023-03-15T17:15:46.008Z,166.57
2023-03-15T17:18:17.307Z,154.80
2023-03-15T17:20:46.210Z,154.13
2023-03-15T17:23:14.039Z,147.03
2023-03-15T17:25:42.182Z,156.97
2023-03-15T17:28:09.848Z,149.53
2023-03-15T17:30:39.053Z,139.37
2023-03-15T17:33:07.112Z,130.43
2023-03-15T17:35:36.793Z,131.07
2023-03-15T17:38:06.215Z,121.77
2023-03-15T17:40:36.331Z,123.50
2023-03-15T17:43:05.136Z,116.63
2023-03-15T17:45:34.246Z,102.53
2023-03-15T17:48:04.228Z,104.93
2023-03-15T17:50:33.451Z,98.47
2023-03-15T17:53:03.112Z,96.13
2023-03-15T17:55:34.710Z,93.90
2023-03-15T17:58:02.667Z,106.27
2023-03-15T18:00:32.555Z,92.87
2023-03-15T18:03:01.294Z,82.33
2023-03-15T18:05:30.789Z,87.93
2023-03-15T18:07:59.833Z,95.73
2023-03-15T18:10:32.564Z,90.20
2023-03-15T18:13:00.234Z,79.37
2023-03-15T18:15:27.836Z,80.90
2023-03-15T18:17:55.472Z,85.43
2023-03-15T18:20:24.078Z,81.87
2023-03-15T18:22:53.194Z,76.80
2023-03-15T18:25:23.252Z,82.60
2023-03-15T18:27:51.444Z,77.97
2023-03-15T18:30:21.137Z,69.63
2023-03-15T18:32:49.381Z,73.73
2023-03-15T18:35:20.160Z,77.53
2023-03-15T18:37:48.043Z,78.33
2023-03-15T18:40:19.428Z,70.43
2023-03-15T18:42:47.128Z,65.27
2023-03-15T18:45:18.941Z,68.40
2023-03-15T18:47:47.032Z,67.90
2023-03-15T18:50:15.288Z,66.13
2023-03-15T18:52:43.552Z,72.67
2023-03-15T18:55:13.309Z,62.70
2023-03-15T18:57:42.952Z,68.67
2023-03-15T19:00:13.168Z,66.23
2023-03-15T19:02:42.021Z,65.60
2023-03-15T19:05:11.627Z,68.43
2023-03-15T19:07:39.848Z,64.20
2023-03-15T19:10:10.543Z,66.13
2023-03-15T19:12:39.770Z,67.60
2023-03-15T19:15:11.711Z,62.40
2023-03-15T19:17:39.911Z,68.73
2023-03-15T19:20:11.860Z,68.90
2023-03-15T19:22:39.888Z,71.40
2023-03-15T19:25:08.777Z,63.10
2023-03-15T19:27:36.506Z,72.10
2023-03-15T19:30:07.901Z,68.90
2023-03-15T19:32:38.033Z,67.53
2023-03-15T19:35:06.644Z,66.33
2023-03-15T19:37:34.344Z,65.03
2023-03-15T19:40:02.757Z,65.07
2023-03-15T19:42:30.413Z,71.90
2023-03-15T19:44:58.034Z,63.00
2023-03-15T19:47:25.699Z,68.63
2023-03-15T19:49:54.865Z,68.80
2023-03-15T19:52:22.581Z,66.70
2023-03-15T19:54:51.685Z,73.07
2023-03-15T19:57:19.525Z,64.37
2023-03-15T19:59:47.293Z,63.30
2023-03-15T20:02:15.246Z,65.30
2023-03-15T20:04:42.977Z,69.23
2023-03-15T20:07:12.369Z,71.77
2023-03-15T20:09:41.320Z,64.43
2023-03-15T20:12:10.875Z,64.30
2023-03-15T20:14:39.793Z,63.80
2023-03-15T20:17:07.592Z,67.40
2023-03-15T20:19:35.933Z,68.20
2023-03-15T20:22:03.542Z,59.60
2023-03-15T20:24:32.681Z,67.13
2023-03-15T20:27:00.418Z,66.30
2023-03-15T20:29:28.061Z,69.00
2023-03-15T20:31:55.728Z,79.47
2023-03-15T20:34:23.440Z,70.10
2023-03-15T20:36:52.568Z,68.17
2023-03-15T20:39:23.932Z,71.23
2023-03-15T20:41:53.506Z,81.40
2023-03-15T20:44:21.490Z,75.10
2023-03-15T20:46:52.510Z,67.73
2023-03-15T20:49:20.220Z,69.07
2023-03-15T20:51:48.246Z,71.10
2023-03-15T20:54:15.898Z,68.40
2023-03-15T20:56:43.592Z,70.10
2023-03-15T20:59:13.441Z,63.50
2023-03-15T21:01:41.179Z,68.43
2023-03-15T21:04:08.795Z,66.80
2023-03-15T21:06:36.510Z,63.13
2023-03-15T21:09:05.000Z,70.00
2023-03-15T21:11:32.725Z,68.63
2023-03-15T21:14:00.882Z,60.77
2023-03-15T21:16:29.982Z,65.80
2023-03-15T21:18:57.694Z,60.27
2023-03-15T21:21:25.370Z,66.70
2023-03-15T21:23:54.178Z,63.47
2023-03-15T21:26:22.307Z,68.43
2023-03-15T21:28:50.570Z,69.13
2023-03-15T21:31:18.360Z,66.93
2023-03-15T21:33:49.218Z,61.20
2023-03-15T21:36:18.650Z,63.23
2023-03-15T21:38:46.315Z,66.83
2023-03-15T21:41:14.186Z,68.13
2023-03-15T21:43:41.899Z,64.50
2023-03-15T21:46:12.892Z,70.33
2023-03-15T21:48:41.837Z,71.83
2023-03-15T21:51:14.745Z,66.27
2023-03-15T21:53:42.871Z,72.83
2023-03-15T21:56:10.526Z,63.17
2023-03-15T21:58:38.220Z,67.80
2023-03-15T22:01:08.993Z,64.07
2023-03-15T22:03:37.525Z,65.57
2023-03-15T22:06:05.389Z,64.53
2023-03-15T22:08:34.792Z,67.07
2023-03-15T22:11:02.472Z,63.87
2023-03-15T22:13:30.297Z,73.23
2023-03-15T22:15:58.320Z,73.73
2023-03-15T22:18:28.456Z,69.37
2023-03-15T22:20:57.328Z,72.30
2023-03-15T22:23:25.199Z,69.77
2023-03-15T22:25:55.386Z,73.83
2023-03-15T22:28:25.016Z,66.70
2023-03-15T22:30:53.038Z,67.97
2023-03-15T22:33:22.466Z,66.87
2023-03-15T22:36:00.037Z,67.07
2023-03-15T22:38:27.821Z,65.90
2023-03-15T22:41:05.232Z,67.60
2023-03-15T22:43:32.972Z,65.03
2023-03-15T22:46:01.045Z,67.87
2023-03-15T22:48:29.361Z,63.03
2023-03-15T22:50:58.917Z,66.60
2023-03-15T22:53:26.847Z,65.77
2023-03-15T22:55:54.596Z,64.87
2023-03-15T22:58:24.257Z,67.70
2023-03-15T23:00:52.287Z,63.47
2023-03-15T23:03:20.669Z,64.70
2023-03-15T23:05:48.393Z,70.33
2023-03-15T23:08:16.281Z,67.70
2023-03-15T23:10:44.037Z,63.97
2023-03-15T23:13:12.528Z,64.97
2023-03-15T23:15:41.711Z,67.73
2023-03-15T23:18:09.489Z,58.57
2023-03-15T23:20:38.408Z,62.97
2023-03-15T23:23:07.322Z,64.67
2023-03-15T23:25:39.154Z,66.17
2023-03-15T23:28:07.752Z,63.87
2023-03-15T23:30:36.573Z,60.97
2023-03-15T23:33:07.769Z,66.53
2023-03-15T23:35:35.457Z,63.60
2023-03-15T23:38:03.149Z,65.40
2023-03-15T23:40:31.285Z,67.93
2023-03-15T23:42:59.593Z,63.97
2023-03-15T23:45:29.824Z,62.83
2023-03-15T23:47:57.752Z,64.47
2023-03-15T23:50:27.490Z,65.70
2023-03-15T23:52:56.831Z,60.07
2023-03-15T23:55:25.180Z,62.70
2023-03-15T23:57:53.068Z,64.53
